sensor_id;sensor_type;location;lat;lon;timestamp;temperature;humidity
21306;DHT22;10812;51.838;5.838;2023-04-06T00:03:54;4.70;99.90
21306;DHT22;10812;51.838;5.838;2023-04-06T00:06:22;4.90;99.90
21306;DHT22;10812;51.838;5.838;2023-04-06T00:08:50;4.90;99.90
21306;DHT22;10812;51.838;5.838;2023-04-06T00:11:19;4.90;99.90
21306;DHT22;10812;51.838;5.838;2023-04-06T00:13:47;4.90;99.90
21306;DHT22;10812;51.838;5.838;2023-04-06T00:16:16;4.90;99.90
21306;DHT22;10812;51.838;5.838;2023-04-06T00:18:44;4.80;99.90
21306;DHT22;10812;51.838;5.838;2023-04-06T00:21:14;4.70;99.90
21306;DHT22;10812;51.838;5.838;2023-04-06T00:23:42;4.70;99.90
21306;DHT22;10812;51.838;5.838;2023-04-06T00:26:10;4.70;99.90
21306;DHT22;10812;51.838;5.838;2023-04-06T00:28:38;4.60;99.90
21306;DHT22;10812;51.838;5.838;2023-04-06T00:31:07;4.60;99.90
21306;DHT22;10812;51.838;5.838;2023-04-06T00:33:35;4.50;99.90
21306;DHT22;10812;51.838;5.838;2023-04-06T00:36:04;4.60;99.90
21306;DHT22;10812;51.838;5.838;2023-04-06T00:38:33;4.60;99.90
21306;DHT22;10812;51.838;5.838;2023-04-06T00:41:03;4.50;99.90
21306;DHT22;10812;51.838;5.838;2023-04-06T00:43:31;4.50;99.90
21306;DHT22;10812;51.838;5.838;2023-04-06T00:46:18;4.40;99.90
21306;DHT22;10812;51.838;5.838;2023-04-06T00:48:46;4.40;99.90
21306;DHT22;10812;51.838;5.838;2023-04-06T00:51:15;4.30;99.90
21306;DHT22;10812;51.838;5.838;2023-04-06T00:53:44;4.20;99.90
21306;DHT22;10812;51.838;5.838;2023-04-06T00:56:12;4.00;99.90
21306;DHT22;10812;51.838;5.838;2023-04-06T00:58:41;4.00;99.90
21306;DHT22;10812;51.838;5.838;2023-04-06T01:01:09;3.90;99.90
21306;DHT22;10812;51.838;5.838;2023-04-06T01:03:37;3.80;99.90
21306;DHT22;10812;51.838;5.838;2023-04-06T01:06:06;3.80;99.90
21306;DHT22;10812;51.838;5.838;2023-04-06T01:08:34;3.80;99.90
21306;DHT22;10812;51.838;5.838;2023-04-06T01:11:04;3.70;99.90
21306;DHT22;10812;51.838;5.838;2023-04-06T01:13:32;3.70;99.90
21306;DHT22;10812;51.838;5.838;2023-04-06T01:16:00;3.70;99.90
21306;DHT22;10812;51.838;5.838;2023-04-06T01:18:29;3.80;99.90
21306;DHT22;10812;51.838;5.838;2023-04-06T01:20:57;3.80;99.90
21306;DHT22;10812;51.838;5.838;2023-04-06T01:23:27;3.90;99.90
21306;DHT22;10812;51.838;5.838;2023-04-06T01:25:56;3.80;99.90
21306;DHT22;10812;51.838;5.838;2023-04-06T01:28:24;3.80;99.90
21306;DHT22;10812;51.838;5.838;2023-04-06T01:30:52;3.80;99.90
21306;DHT22;10812;51.838;5.838;2023-04-06T01:33:20;3.80;99.90
21306;DHT22;10812;51.838;5.838;2023-04-06T01:35:48;3.80;99.90
21306;DHT22;10812;51.838;5.838;2023-04-06T01:53:42;3.70;99.90
21306;DHT22;10812;51.838;5.838;2023-04-06T01:56:10;3.70;99.90
21306;DHT22;10812;51.838;5.838;2023-04-06T01:58:38;3.70;99.90
21306;DHT22;10812;51.838;5.838;2023-04-06T02:01:06;3.60;99.90
21306;DHT22;10812;51.838;5.838;2023-04-06T02:03:35;3.60;99.90
21306;DHT22;10812;51.838;5.838;2023-04-06T02:06:03;3.50;99.90
21306;DHT22;10812;51.838;5.838;2023-04-06T02:16:21;3.40;99.90
21306;DHT22;10812;51.838;5.838;2023-04-06T02:18:49;3.40;99.90
21306;DHT22;10812;51.838;5.838;2023-04-06T02:21:18;3.40;99.90
21306;DHT22;10812;51.838;5.838;2023-04-06T02:23:47;3.50;99.90
21306;DHT22;10812;51.838;5.838;2023-04-06T02:26:16;3.50;99.90
21306;DHT22;10812;51.838;5.838;2023-04-06T02:28:44;3.60;99.90
21306;DHT22;10812;51.838;5.838;2023-04-06T02:31:12;3.60;99.90
21306;DHT22;10812;51.838;5.838;2023-04-06T02:33:43;3.60;99.90
21306;DHT22;10812;51.838;5.838;2023-04-06T02:36:11;3.60;99.90
21306;DHT22;10812;51.838;5.838;2023-04-06T02:38:39;3.70;99.90
21306;DHT22;10812;51.838;5.838;2023-04-06T02:41:08;3.70;99.90
21306;DHT22;10812;51.838;5.838;2023-04-06T02:43:36;3.60;99.90
21306;DHT22;10812;51.838;5.838;2023-04-06T02:46:04;3.70;99.90
21306;DHT22;10812;51.838;5.838;2023-04-06T02:48:32;3.70;99.90
21306;DHT22;10812;51.838;5.838;2023-04-06T02:51:04;3.80;99.90
21306;DHT22;10812;51.838;5.838;2023-04-06T02:53:33;3.80;99.90
21306;DHT22;10812;51.838;5.838;2023-04-06T02:56:01;3.80;99.90
21306;DHT22;10812;51.838;5.838;2023-04-06T02:58:29;3.80;99.90
21306;DHT22;10812;51.838;5.838;2023-04-06T03:06:19;3.90;99.90
21306;DHT22;10812;51.838;5.838;2023-04-06T03:08:47;4.00;99.90
21306;DHT22;10812;51.838;5.838;2023-04-06T03:11:16;4.00;99.90
21306;DHT22;10812;51.838;5.838;2023-04-06T03:13:45;4.00;99.90
21306;DHT22;10812;51.838;5.838;2023-04-06T03:16:13;4.10;99.90
21306;DHT22;10812;51.838;5.838;2023-04-06T03:18:41;4.20;99.90
21306;DHT22;10812;51.838;5.838;2023-04-06T03:21:11;4.20;99.90
21306;DHT22;10812;51.838;5.838;2023-04-06T03:23:40;4.20;99.90
21306;DHT22;10812;51.838;5.838;2023-04-06T03:26:09;4.30;99.90
21306;DHT22;10812;51.838;5.838;2023-04-06T03:28:38;4.30;99.90
21306;DHT22;10812;51.838;5.838;2023-04-06T03:31:06;4.30;99.90
21306;DHT22;10812;51.838;5.838;2023-04-06T03:33:34;4.30;99.90
21306;DHT22;10812;51.838;5.838;2023-04-06T03:36:03;4.40;99.90
21306;DHT22;10812;51.838;5.838;2023-04-06T03:38:31;4.50;99.90
21306;DHT22;10812;51.838;5.838;2023-04-06T03:41:01;4.40;99.90
21306;DHT22;10812;51.838;5.838;2023-04-06T03:51:11;4.30;99.90
21306;DHT22;10812;51.838;5.838;2023-04-06T03:53:39;4.40;99.90
21306;DHT22;10812;51.838;5.838;2023-04-06T03:56:08;4.40;99.90
21306;DHT22;10812;51.838;5.838;2023-04-06T03:58:37;4.30;99.90
21306;DHT22;10812;51.838;5.838;2023-04-06T04:01:05;4.40;99.90
21306;DHT22;10812;51.838;5.838;2023-04-06T04:03:33;4.50;99.90
21306;DHT22;10812;51.838;5.838;2023-04-06T04:06:01;4.50;99.90
21306;DHT22;10812;51.838;5.838;2023-04-06T04:08:30;4.60;99.90
21306;DHT22;10812;51.838;5.838;2023-04-06T04:10:58;4.50;99.90
21306;DHT22;10812;51.838;5.838;2023-04-06T04:13:27;4.50;99.90
21306;DHT22;10812;51.838;5.838;2023-04-06T04:15:56;4.60;99.90
21306;DHT22;10812;51.838;5.838;2023-04-06T04:18:24;4.50;99.90
21306;DHT22;10812;51.838;5.838;2023-04-06T04:20:52;4.50;99.90
21306;DHT22;10812;51.838;5.838;2023-04-06T04:23:20;4.60;99.90
21306;DHT22;10812;51.838;5.838;2023-04-06T04:25:49;4.60;99.90
21306;DHT22;10812;51.838;5.838;2023-04-06T04:28:17;4.70;99.90
21306;DHT22;10812;51.838;5.838;2023-04-06T04:30:47;4.70;99.90
21306;DHT22;10812;51.838;5.838;2023-04-06T04:33:16;4.70;99.90
21306;DHT22;10812;51.838;5.838;2023-04-06T04:35:44;4.70;99.90
21306;DHT22;10812;51.838;5.838;2023-04-06T04:38:12;4.60;99.90
21306;DHT22;10812;51.838;5.838;2023-04-06T04:40:40;4.60;99.90
21306;DHT22;10812;51.838;5.838;2023-04-06T04:43:08;4.70;99.90
21306;DHT22;10812;51.838;5.838;2023-04-06T04:45:37;4.70;99.90
21306;DHT22;10812;51.838;5.838;2023-04-06T04:48:06;4.70;99.90
21306;DHT22;10812;51.838;5.838;2023-04-06T04:50:35;4.60;99.90
21306;DHT22;10812;51.838;5.838;2023-04-06T04:53:03;4.60;99.90
21306;DHT22;10812;51.838;5.838;2023-04-06T04:55:32;4.60;99.90
21306;DHT22;10812;51.838;5.838;2023-04-06T04:58:01;4.60;99.90
21306;DHT22;10812;51.838;5.838;2023-04-06T05:00:29;4.60;99.90
21306;DHT22;10812;51.838;5.838;2023-04-06T05:02:57;4.50;99.90
21306;DHT22;10812;51.838;5.838;2023-04-06T05:05:27;4.50;99.90
21306;DHT22;10812;51.838;5.838;2023-04-06T05:07:56;4.50;99.90
21306;DHT22;10812;51.838;5.838;2023-04-06T05:10:24;4.50;99.90
21306;DHT22;10812;51.838;5.838;2023-04-06T05:12:52;4.50;99.90
21306;DHT22;10812;51.838;5.838;2023-04-06T05:15:20;4.60;99.90
21306;DHT22;10812;51.838;5.838;2023-04-06T05:17:48;4.70;99.90
21306;DHT22;10812;51.838;5.838;2023-04-06T05:20:17;4.80;99.90
21306;DHT22;10812;51.838;5.838;2023-04-06T05:22:46;4.90;99.90
21306;DHT22;10812;51.838;5.838;2023-04-06T05:25:15;4.90;99.90
21306;DHT22;10812;51.838;5.838;2023-04-06T05:27:43;5.00;99.90
21306;DHT22;10812;51.838;5.838;2023-04-06T05:30:14;5.00;99.90
21306;DHT22;10812;51.838;5.838;2023-04-06T05:32:43;5.00;99.90
21306;DHT22;10812;51.838;5.838;2023-04-06T05:35:12;5.00;99.90
21306;DHT22;10812;51.838;5.838;2023-04-06T05:37:42;5.10;99.90
21306;DHT22;10812;51.838;5.838;2023-04-06T05:40:12;5.10;99.90
21306;DHT22;10812;51.838;5.838;2023-04-06T05:42:41;5.20;99.90
21306;DHT22;10812;51.838;5.838;2023-04-06T05:45:11;5.30;99.90
21306;DHT22;10812;51.838;5.838;2023-04-06T05:47:44;5.40;99.90
21306;DHT22;10812;51.838;5.838;2023-04-06T05:57:56;5.80;99.90
21306;DHT22;10812;51.838;5.838;2023-04-06T06:00:24;5.90;99.90
21306;DHT22;10812;51.838;5.838;2023-04-06T06:02:53;6.10;99.90
21306;DHT22;10812;51.838;5.838;2023-04-06T06:05:23;6.30;99.90
21306;DHT22;10812;51.838;5.838;2023-04-06T06:07:52;6.50;99.90
21306;DHT22;10812;51.838;5.838;2023-04-06T06:10:20;6.60;99.90
21306;DHT22;10812;51.838;5.838;2023-04-06T06:12:48;6.90;99.90
21306;DHT22;10812;51.838;5.838;2023-04-06T06:15:18;7.80;99.90
21306;DHT22;10812;51.838;5.838;2023-04-06T06:17:46;8.80;99.90
21306;DHT22;10812;51.838;5.838;2023-04-06T06:20:14;9.00;99.90
21306;DHT22;10812;51.838;5.838;2023-04-06T06:22:42;9.10;99.90
21306;DHT22;10812;51.838;5.838;2023-04-06T06:25:11;9.20;99.90
21306;DHT22;10812;51.838;5.838;2023-04-06T06:27:42;9.60;99.90
21306;DHT22;10812;51.838;5.838;2023-04-06T06:30:11;10.30;99.90
21306;DHT22;10812;51.838;5.838;2023-04-06T06:32:40;11.30;99.30
21306;DHT22;10812;51.838;5.838;2023-04-06T06:35:09;12.20;97.60
21306;DHT22;10812;51.838;5.838;2023-04-06T06:37:37;12.50;96.10
21306;DHT22;10812;51.838;5.838;2023-04-06T06:40:06;12.80;95.60
21306;DHT22;10812;51.838;5.838;2023-04-06T06:42:35;13.00;95.30
21306;DHT22;10812;51.838;5.838;2023-04-06T06:45:07;13.10;95.00
21306;DHT22;10812;51.838;5.838;2023-04-06T06:47:35;13.50;94.60
21306;DHT22;10812;51.838;5.838;2023-04-06T06:50:06;13.50;94.20
21306;DHT22;10812;51.838;5.838;2023-04-06T06:52:34;13.10;94.50
21306;DHT22;10812;51.838;5.838;2023-04-06T06:55:03;12.60;94.80
21306;DHT22;10812;51.838;5.838;2023-04-06T06:57:32;11.60;95.80
21306;DHT22;10812;51.838;5.838;2023-04-06T07:00:04;11.10;96.50
21306;DHT22;10812;51.838;5.838;2023-04-06T07:02:34;10.70;97.10
21306;DHT22;10812;51.838;5.838;2023-04-06T07:05:02;10.30;97.40
21306;DHT22;10812;51.838;5.838;2023-04-06T07:07:52;10.00;98.20
21306;DHT22;10812;51.838;5.838;2023-04-06T07:10:20;9.90;98.40
21306;DHT22;10812;51.838;5.838;2023-04-06T07:12:49;9.70;98.90
21306;DHT22;10812;51.838;5.838;2023-04-06T07:15:17;9.50;99.40
21306;DHT22;10812;51.838;5.838;2023-04-06T07:17:45;9.40;99.70
21306;DHT22;10812;51.838;5.838;2023-04-06T07:20:14;9.50;99.70
21306;DHT22;10812;51.838;5.838;2023-04-06T07:22:43;9.60;99.90
21306;DHT22;10812;51.838;5.838;2023-04-06T07:25:13;9.90;99.80
21306;DHT22;10812;51.838;5.838;2023-04-06T07:27:41;10.50;99.00
21306;DHT22;10812;51.838;5.838;2023-04-06T07:30:10;11.50;97.70
21306;DHT22;10812;51.838;5.838;2023-04-06T07:32:38;11.90;96.70
21306;DHT22;10812;51.838;5.838;2023-04-06T07:35:07;12.00;96.60
21306;DHT22;10812;51.838;5.838;2023-04-06T07:37:35;11.70;97.00
21306;DHT22;10812;51.838;5.838;2023-04-06T07:40:04;11.60;97.20
21306;DHT22;10812;51.838;5.838;2023-04-06T07:42:35;11.50;97.50
21306;DHT22;10812;51.838;5.838;2023-04-06T07:45:04;11.40;97.80
21306;DHT22;10812;51.838;5.838;2023-04-06T07:47:32;11.10;98.20
21306;DHT22;10812;51.838;5.838;2023-04-06T07:50:01;10.50;99.20
21306;DHT22;10812;51.838;5.838;2023-04-06T07:52:29;10.30;99.30
21306;DHT22;10812;51.838;5.838;2023-04-06T07:54:58;9.80;99.90
21306;DHT22;10812;51.838;5.838;2023-04-06T07:57:27;9.50;99.90
21306;DHT22;10812;51.838;5.838;2023-04-06T07:59:56;9.30;99.90
21306;DHT22;10812;51.838;5.838;2023-04-06T08:02:27;9.20;99.90
21306;DHT22;10812;51.838;5.838;2023-04-06T08:04:55;9.30;99.90
21306;DHT22;10812;51.838;5.838;2023-04-06T08:07:25;9.20;99.90
21306;DHT22;10812;51.838;5.838;2023-04-06T08:09:54;9.20;99.90
21306;DHT22;10812;51.838;5.838;2023-04-06T08:12:22;9.00;99.90
21306;DHT22;10812;51.838;5.838;2023-04-06T08:14:50;9.00;99.90
21306;DHT22;10812;51.838;5.838;2023-04-06T08:17:20;9.00;99.90
21306;DHT22;10812;51.838;5.838;2023-04-06T08:19:50;9.10;99.90
21306;DHT22;10812;51.838;5.838;2023-04-06T08:37:16;9.40;99.90
21306;DHT22;10812;51.838;5.838;2023-04-06T08:39:44;9.50;99.90
21306;DHT22;10812;51.838;5.838;2023-04-06T08:42:19;9.50;99.90
21306;DHT22;10812;51.838;5.838;2023-04-06T08:44:49;9.70;99.90
21306;DHT22;10812;51.838;5.838;2023-04-06T08:47:18;9.70;99.90
21306;DHT22;10812;51.838;5.838;2023-04-06T08:49:51;9.70;99.90
21306;DHT22;10812;51.838;5.838;2023-04-06T08:52:21;9.70;99.90
21306;DHT22;10812;51.838;5.838;2023-04-06T08:54:49;9.90;99.90
21306;DHT22;10812;51.838;5.838;2023-04-06T08:57:18;10.10;99.90
21306;DHT22;10812;51.838;5.838;2023-04-06T08:59:47;10.30;99.90
21306;DHT22;10812;51.838;5.838;2023-04-06T09:02:18;10.60;99.90
21306;DHT22;10812;51.838;5.838;2023-04-06T09:04:48;11.10;99.90
21306;DHT22;10812;51.838;5.838;2023-04-06T09:07:17;11.70;99.90
21306;DHT22;10812;51.838;5.838;2023-04-06T09:09:46;12.10;99.90
21306;DHT22;10812;51.838;5.838;2023-04-06T09:12:25;12.30;99.80
21306;DHT22;10812;51.838;5.838;2023-04-06T09:14:56;12.80;99.30
21306;DHT22;10812;51.838;5.838;2023-04-06T09:17:25;12.80;99.30
21306;DHT22;10812;51.838;5.838;2023-04-06T09:19:54;12.90;98.50
21306;DHT22;10812;51.838;5.838;2023-04-06T09:22:22;12.90;98.40
21306;DHT22;10812;51.838;5.838;2023-04-06T09:24:54;12.70;98.60
21306;DHT22;10812;51.838;5.838;2023-04-06T09:27:30;12.60;98.70
21306;DHT22;10812;51.838;5.838;2023-04-06T09:30:08;12.40;99.10
21306;DHT22;10812;51.838;5.838;2023-04-06T09:32:50;12.50;99.40
21306;DHT22;10812;51.838;5.838;2023-04-06T09:35:19;12.70;99.60
21306;DHT22;10812;51.838;5.838;2023-04-06T09:37:48;12.90;99.20
21306;DHT22;10812;51.838;5.838;2023-04-06T09:40:21;13.00;99.10
21306;DHT22;10812;51.838;5.838;2023-04-06T09:42:51;12.70;99.00
21306;DHT22;10812;51.838;5.838;2023-04-06T09:45:21;12.50;99.60
21306;DHT22;10812;51.838;5.838;2023-04-06T09:47:49;12.20;99.60
21306;DHT22;10812;51.838;5.838;2023-04-06T09:50:21;12.10;99.90
21306;DHT22;10812;51.838;5.838;2023-04-06T09:52:51;12.00;99.90
21306;DHT22;10812;51.838;5.838;2023-04-06T09:55:28;11.90;99.90
21306;DHT22;10812;51.838;5.838;2023-04-06T09:58:04;11.90;99.90
21306;DHT22;10812;51.838;5.838;2023-04-06T10:00:40;11.70;99.90
21306;DHT22;10812;51.838;5.838;2023-04-06T10:03:13;11.70;99.90
21306;DHT22;10812;51.838;5.838;2023-04-06T10:05:47;11.70;99.90
21306;DHT22;10812;51.838;5.838;2023-04-06T10:08:19;11.70;99.90
21306;DHT22;10812;51.838;5.838;2023-04-06T10:10:51;11.70;99.90
21306;DHT22;10812;51.838;5.838;2023-04-06T10:13:19;11.60;99.90
21306;DHT22;10812;51.838;5.838;2023-04-06T10:15:48;11.50;99.90
21306;DHT22;10812;51.838;5.838;2023-04-06T10:18:16;11.60;99.90
21306;DHT22;10812;51.838;5.838;2023-04-06T10:24:38;11.70;99.90
21306;DHT22;10812;51.838;5.838;2023-04-06T10:27:07;11.80;99.90
21306;DHT22;10812;51.838;5.838;2023-04-06T10:29:43;11.90;99.90
21306;DHT22;10812;51.838;5.838;2023-04-06T10:32:12;12.00;99.90
21306;DHT22;10812;51.838;5.838;2023-04-06T10:34:40;12.00;99.90
21306;DHT22;10812;51.838;5.838;2023-04-06T10:37:13;12.10;99.90
21306;DHT22;10812;51.838;5.838;2023-04-06T10:39:52;12.20;99.90
21306;DHT22;10812;51.838;5.838;2023-04-06T10:42:36;12.20;99.90
21306;DHT22;10812;51.838;5.838;2023-04-06T10:52:59;12.90;99.90
21306;DHT22;10812;51.838;5.838;2023-04-06T10:55:28;13.10;99.90
21306;DHT22;10812;51.838;5.838;2023-04-06T10:57:58;13.10;99.90
21306;DHT22;10812;51.838;5.838;2023-04-06T11:00:26;13.00;99.90
21306;DHT22;10812;51.838;5.838;2023-04-06T11:03:09;13.10;99.90
21306;DHT22;10812;51.838;5.838;2023-04-06T11:05:37;13.10;99.90
21306;DHT22;10812;51.838;5.838;2023-04-06T11:08:05;13.20;99.90
21306;DHT22;10812;51.838;5.838;2023-04-06T11:10:34;12.90;99.90
21306;DHT22;10812;51.838;5.838;2023-04-06T11:13:03;12.90;99.90
21306;DHT22;10812;51.838;5.838;2023-04-06T11:15:34;12.80;99.90
21306;DHT22;10812;51.838;5.838;2023-04-06T11:18:05;12.70;99.90
21306;DHT22;10812;51.838;5.838;2023-04-06T11:20:33;12.50;99.90
21306;DHT22;10812;51.838;5.838;2023-04-06T11:23:02;12.60;99.90
21306;DHT22;10812;51.838;5.838;2023-04-06T11:25:30;12.60;99.90
21306;DHT22;10812;51.838;5.838;2023-04-06T11:27:59;12.30;99.90
21306;DHT22;10812;51.838;5.838;2023-04-06T11:30:29;12.00;99.90
21306;DHT22;10812;51.838;5.838;2023-04-06T11:33:01;11.90;99.90
21306;DHT22;10812;51.838;5.838;2023-04-06T11:35:31;11.90;99.90
21306;DHT22;10812;51.838;5.838;2023-04-06T11:38:03;11.90;99.90
21306;DHT22;10812;51.838;5.838;2023-04-06T11:40:31;11.70;99.90
21306;DHT22;10812;51.838;5.838;2023-04-06T11:43:00;11.40;99.90
21306;DHT22;10812;51.838;5.838;2023-04-06T11:45:39;11.20;99.90
21306;DHT22;10812;51.838;5.838;2023-04-06T11:48:18;11.20;99.90
21306;DHT22;10812;51.838;5.838;2023-04-06T11:50:47;11.10;99.90
21306;DHT22;10812;51.838;5.838;2023-04-06T11:53:15;11.00;99.90
21306;DHT22;10812;51.838;5.838;2023-04-06T11:55:44;10.80;99.90
21306;DHT22;10812;51.838;5.838;2023-04-06T11:58:14;10.70;99.90
21306;DHT22;10812;51.838;5.838;2023-04-06T12:00:43;10.70;99.90
21306;DHT22;10812;51.838;5.838;2023-04-06T12:03:14;10.60;99.90
21306;DHT22;10812;51.838;5.838;2023-04-06T12:05:43;10.60;99.90
21306;DHT22;10812;51.838;5.838;2023-04-06T12:08:11;10.50;99.90
21306;DHT22;10812;51.838;5.838;2023-04-06T12:10:39;10.50;99.90
21306;DHT22;10812;51.838;5.838;2023-04-06T12:13:08;10.40;99.90
21306;DHT22;10812;51.838;5.838;2023-04-06T12:15:36;10.20;99.90
21306;DHT22;10812;51.838;5.838;2023-04-06T12:18:05;10.10;99.90
21306;DHT22;10812;51.838;5.838;2023-04-06T12:20:34;9.90;99.90
21306;DHT22;10812;51.838;5.838;2023-04-06T12:23:02;9.80;99.90
21306;DHT22;10812;51.838;5.838;2023-04-06T12:25:30;9.70;99.90
21306;DHT22;10812;51.838;5.838;2023-04-06T12:27:58;9.60;99.90
21306;DHT22;10812;51.838;5.838;2023-04-06T12:30:27;9.50;99.90
21306;DHT22;10812;51.838;5.838;2023-04-06T12:32:55;9.40;99.90
21306;DHT22;10812;51.838;5.838;2023-04-06T12:35:25;9.30;99.90
21306;DHT22;10812;51.838;5.838;2023-04-06T12:37:53;9.40;99.90
21306;DHT22;10812;51.838;5.838;2023-04-06T12:40:21;9.40;99.90
21306;DHT22;10812;51.838;5.838;2023-04-06T12:42:49;9.30;99.90
21306;DHT22;10812;51.838;5.838;2023-04-06T12:45:17;9.20;99.90
21306;DHT22;10812;51.838;5.838;2023-04-06T12:47:45;9.00;99.90
21306;DHT22;10812;51.838;5.838;2023-04-06T12:50:14;9.00;99.90
21306;DHT22;10812;51.838;5.838;2023-04-06T12:52:43;8.90;99.90
21306;DHT22;10812;51.838;5.838;2023-04-06T12:55:11;8.90;99.90
21306;DHT22;10812;51.838;5.838;2023-04-06T12:57:40;8.90;99.90
21306;DHT22;10812;51.838;5.838;2023-04-06T13:00:08;8.90;99.90
21306;DHT22;10812;51.838;5.838;2023-04-06T13:02:37;9.00;99.90
21306;DHT22;10812;51.838;5.838;2023-04-06T13:05:06;9.00;99.90
21306;DHT22;10812;51.838;5.838;2023-04-06T13:07:34;9.00;99.90
21306;DHT22;10812;51.838;5.838;2023-04-06T13:10:04;8.90;99.90
21306;DHT22;10812;51.838;5.838;2023-04-06T13:12:33;8.90;99.90
21306;DHT22;10812;51.838;5.838;2023-04-06T13:15:01;8.90;99.90
21306;DHT22;10812;51.838;5.838;2023-04-06T13:17:30;9.00;99.90
21306;DHT22;10812;51.838;5.838;2023-04-06T13:19:58;9.00;99.90
21306;DHT22;10812;51.838;5.838;2023-04-06T13:22:26;9.10;99.90
21306;DHT22;10812;51.838;5.838;2023-04-06T13:24:54;9.10;99.90
21306;DHT22;10812;51.838;5.838;2023-04-06T13:27:24;9.00;99.90
21306;DHT22;10812;51.838;5.838;2023-04-06T13:29:55;9.10;99.90
21306;DHT22;10812;51.838;5.838;2023-04-06T13:32:23;9.00;99.90
21306;DHT22;10812;51.838;5.838;2023-04-06T13:34:54;9.10;99.90
21306;DHT22;10812;51.838;5.838;2023-04-06T13:37:22;9.10;99.90
21306;DHT22;10812;51.838;5.838;2023-04-06T13:39:51;9.20;99.90
21306;DHT22;10812;51.838;5.838;2023-04-06T13:42:19;9.30;99.90
21306;DHT22;10812;51.838;5.838;2023-04-06T13:44:48;9.30;99.90
21306;DHT22;10812;51.838;5.838;2023-04-06T13:47:17;9.30;99.90
21306;DHT22;10812;51.838;5.838;2023-04-06T13:49:45;9.40;99.90
21306;DHT22;10812;51.838;5.838;2023-04-06T13:52:13;9.40;99.90
21306;DHT22;10812;51.838;5.838;2023-04-06T13:54:42;9.30;99.90
21306;DHT22;10812;51.838;5.838;2023-04-06T13:57:10;9.30;99.90
21306;DHT22;10812;51.838;5.838;2023-04-06T13:59:39;9.20;99.90
21306;DHT22;10812;51.838;5.838;2023-04-06T14:02:09;9.30;99.90
21306;DHT22;10812;51.838;5.838;2023-04-06T14:04:38;9.20;99.90
21306;DHT22;10812;51.838;5.838;2023-04-06T14:07:06;9.20;99.90
21306;DHT22;10812;51.838;5.838;2023-04-06T14:09:35;9.20;99.90
21306;DHT22;10812;51.838;5.838;2023-04-06T14:12:03;9.20;99.90
21306;DHT22;10812;51.838;5.838;2023-04-06T14:14:32;9.10;99.90
21306;DHT22;10812;51.838;5.838;2023-04-06T14:17:00;9.20;99.90
21306;DHT22;10812;51.838;5.838;2023-04-06T14:19:30;9.20;99.90
21306;DHT22;10812;51.838;5.838;2023-04-06T14:21:58;9.20;99.90
21306;DHT22;10812;51.838;5.838;2023-04-06T14:24:27;9.20;99.90
21306;DHT22;10812;51.838;5.838;2023-04-06T14:26:56;9.10;99.90
21306;DHT22;10812;51.838;5.838;2023-04-06T14:29:24;9.10;99.90
21306;DHT22;10812;51.838;5.838;2023-04-06T14:31:53;9.10;99.90
21306;DHT22;10812;51.838;5.838;2023-04-06T14:34:26;9.10;99.90
21306;DHT22;10812;51.838;5.838;2023-04-06T14:36:56;9.10;99.90
21306;DHT22;10812;51.838;5.838;2023-04-06T14:39:24;9.00;99.90
21306;DHT22;10812;51.838;5.838;2023-04-06T14:41:53;9.00;99.90
21306;DHT22;10812;51.838;5.838;2023-04-06T14:44:21;8.90;99.90
21306;DHT22;10812;51.838;5.838;2023-04-06T14:46:49;8.80;99.90
21306;DHT22;10812;51.838;5.838;2023-04-06T14:49:18;8.80;99.90
21306;DHT22;10812;51.838;5.838;2023-04-06T14:51:46;8.70;99.90
21306;DHT22;10812;51.838;5.838;2023-04-06T14:54:15;8.70;99.90
21306;DHT22;10812;51.838;5.838;2023-04-06T14:56:44;8.70;99.90
21306;DHT22;10812;51.838;5.838;2023-04-06T14:59:12;8.70;99.90
21306;DHT22;10812;51.838;5.838;2023-04-06T15:01:40;8.70;99.90
21306;DHT22;10812;51.838;5.838;2023-04-06T15:04:08;8.70;99.90
21306;DHT22;10812;51.838;5.838;2023-04-06T15:06:37;8.60;99.90
21306;DHT22;10812;51.838;5.838;2023-04-06T15:09:05;8.60;99.90
21306;DHT22;10812;51.838;5.838;2023-04-06T15:11:35;8.50;99.90
21306;DHT22;10812;51.838;5.838;2023-04-06T15:14:03;8.50;99.90
21306;DHT22;10812;51.838;5.838;2023-04-06T15:16:31;8.50;99.90
21306;DHT22;10812;51.838;5.838;2023-04-06T15:18:59;8.60;99.90
21306;DHT22;10812;51.838;5.838;2023-04-06T15:21:28;8.50;99.90
21306;DHT22;10812;51.838;5.838;2023-04-06T15:23:57;8.50;99.90
21306;DHT22;10812;51.838;5.838;2023-04-06T15:26:25;8.50;99.90
21306;DHT22;10812;51.838;5.838;2023-04-06T15:28:54;8.50;99.90
21306;DHT22;10812;51.838;5.838;2023-04-06T15:31:22;8.50;99.90
21306;DHT22;10812;51.838;5.838;2023-04-06T15:34:03;8.40;99.90
21306;DHT22;10812;51.838;5.838;2023-04-06T15:36:32;8.40;99.90
21306;DHT22;10812;51.838;5.838;2023-04-06T15:39:01;8.40;99.90
21306;DHT22;10812;51.838;5.838;2023-04-06T15:41:29;8.40;99.90
21306;DHT22;10812;51.838;5.838;2023-04-06T15:43:59;8.50;99.90
21306;DHT22;10812;51.838;5.838;2023-04-06T15:46:27;8.40;99.90
21306;DHT22;10812;51.838;5.838;2023-04-06T15:48:55;8.40;99.90
21306;DHT22;10812;51.838;5.838;2023-04-06T15:51:23;8.40;99.90
21306;DHT22;10812;51.838;5.838;2023-04-06T15:53:52;8.30;99.90
21306;DHT22;10812;51.838;5.838;2023-04-06T15:56:20;8.40;99.90
21306;DHT22;10812;51.838;5.838;2023-04-06T15:58:48;8.40;99.90
21306;DHT22;10812;51.838;5.838;2023-04-06T16:01:18;8.40;99.90
21306;DHT22;10812;51.838;5.838;2023-04-06T16:03:46;8.40;99.90
21306;DHT22;10812;51.838;5.838;2023-04-06T16:06:14;8.40;99.90
21306;DHT22;10812;51.838;5.838;2023-04-06T16:08:42;8.40;99.90
21306;DHT22;10812;51.838;5.838;2023-04-06T16:11:11;8.40;99.90
21306;DHT22;10812;51.838;5.838;2023-04-06T16:13:40;8.30;99.90
21306;DHT22;10812;51.838;5.838;2023-04-06T16:16:13;8.30;99.90
21306;DHT22;10812;51.838;5.838;2023-04-06T16:18:42;8.40;99.90
21306;DHT22;10812;51.838;5.838;2023-04-06T16:21:14;8.40;99.90
21306;DHT22;10812;51.838;5.838;2023-04-06T16:23:43;8.40;99.90
21306;DHT22;10812;51.838;5.838;2023-04-06T16:26:13;8.30;99.90
21306;DHT22;10812;51.838;5.838;2023-04-06T16:28:41;8.30;99.90
21306;DHT22;10812;51.838;5.838;2023-04-06T16:31:16;8.30;99.90
21306;DHT22;10812;51.838;5.838;2023-04-06T16:33:47;8.30;99.90
21306;DHT22;10812;51.838;5.838;2023-04-06T16:36:21;8.30;99.90
21306;DHT22;10812;51.838;5.838;2023-04-06T16:38:50;8.40;99.90
21306;DHT22;10812;51.838;5.838;2023-04-06T16:41:18;8.40;99.90
21306;DHT22;10812;51.838;5.838;2023-04-06T16:43:46;8.40;99.90
21306;DHT22;10812;51.838;5.838;2023-04-06T16:46:15;8.50;99.90
21306;DHT22;10812;51.838;5.838;2023-04-06T16:48:44;8.40;99.90
21306;DHT22;10812;51.838;5.838;2023-04-06T16:51:13;8.40;99.90
21306;DHT22;10812;51.838;5.838;2023-04-06T16:53:44;8.30;99.90
21306;DHT22;10812;51.838;5.838;2023-04-06T16:56:14;8.30;99.90
21306;DHT22;10812;51.838;5.838;2023-04-06T16:58:42;8.30;99.90
21306;DHT22;10812;51.838;5.838;2023-04-06T17:01:17;8.30;99.90
21306;DHT22;10812;51.838;5.838;2023-04-06T17:03:46;8.30;99.90
21306;DHT22;10812;51.838;5.838;2023-04-06T17:06:16;8.30;99.90
21306;DHT22;10812;51.838;5.838;2023-04-06T17:08:45;8.30;99.90